createdAt,value
2017-02-12T00:00:30.913Z,0
2017-02-12T00:01:31.449Z,0
2017-02-12T00:02:31.977Z,0
2017-02-12T00:03:32.507Z,0
2017-02-12T00:04:33.187Z,0
2017-02-12T00:05:33.569Z,0
2017-02-12T00:06:34.097Z,0
2017-02-12T00:07:34.633Z,0
2017-02-12T00:08:35.155Z,0
2017-02-12T00:09:35.689Z,0
2017-02-12T00:10:36.367Z,0
2017-02-12T00:11:36.745Z,0
2017-02-12T00:12:37.277Z,0
2017-02-12T00:13:37.955Z,0
2017-02-12T00:14:38.337Z,0
2017-02-12T00:15:38.877Z,0
2017-02-12T00:16:39.401Z,0
2017-02-12T00:17:39.938Z,0
2017-02-12T00:18:40.505Z,0
2017-02-12T00:19:41.006Z,0
2017-02-12T00:20:41.541Z,0
2017-02-12T00:21:42.072Z,0
2017-02-12T00:22:42.752Z,0
2017-02-12T00:23:43.134Z,0
2017-02-12T00:24:43.697Z,0
2017-02-12T00:25:44.191Z,0
2017-02-12T00:26:44.868Z,0
2017-02-12T00:27:45.250Z,0
2017-02-12T00:28:45.778Z,0
2017-02-12T00:29:46.312Z,0
2017-02-12T00:30:46.985Z,0
2017-02-12T00:31:47.368Z,0
2017-02-12T00:32:48.047Z,0
2017-02-12T00:33:48.430Z,0
2017-02-12T00:34:48.958Z,0
2017-02-12T00:35:49.492Z,0
2017-02-12T00:36:50.046Z,0
2017-02-12T00:37:50.547Z,0
2017-02-12T00:38:51.079Z,0
2017-02-12T00:39:51.616Z,0
2017-02-12T00:40:52.147Z,0
2017-02-12T00:41:52.677Z,0
2017-02-12T00:42:53.384Z,0
2017-02-12T00:43:53.885Z,0
2017-02-12T00:44:54.264Z,0
2017-02-12T00:45:54.795Z,0
2017-02-12T00:46:55.321Z,0
2017-02-12T00:47:55.862Z,0
2017-02-12T00:48:56.382Z,0
2017-02-12T00:49:56.916Z,0
2017-02-12T00:50:57.596Z,0
2017-02-12T00:51:58.121Z,0
2017-02-12T00:52:58.546Z,0
2017-02-12T00:53:59.038Z,0
2017-02-12T00:54:59.578Z,0
2017-02-12T00:56:00.243Z,0
2017-02-12T00:57:00.632Z,0
2017-02-12T00:58:01.162Z,0
2017-02-12T00:59:01.696Z,0
2017-02-12T01:00:02.228Z,0
2017-02-12T01:01:02.760Z,0
2017-02-12T01:02:03.296Z,0
2017-02-12T01:03:03.838Z,0
2017-02-12T01:04:04.369Z,0
2017-02-12T01:05:04.911Z,0
2017-02-12T01:06:05.432Z,0
2017-02-12T01:07:05.960Z,0
2017-02-12T01:08:06.492Z,0
2017-02-12T01:09:07.172Z,0
2017-02-12T01:10:07.554Z,0
2017-02-12T01:11:08.080Z,0
2017-02-12T01:12:08.617Z,0
2017-02-12T01:13:09.143Z,0
2017-02-12T01:14:09.818Z,0
2017-02-12T01:15:10.350Z,0
2017-02-12T01:16:10.875Z,0
2017-02-12T01:17:11.258Z,0
2017-02-12T01:18:11.790Z,0
2017-02-12T01:19:12.321Z,0
2017-02-12T01:20:12.854Z,0
2017-02-12T01:21:13.383Z,0
2017-02-12T01:22:14.098Z,0
2017-02-12T01:23:14.445Z,0
2017-02-12T01:24:15.122Z,0
2017-02-12T01:25:15.508Z,0
2017-02-12T01:26:16.039Z,0
2017-02-12T01:27:16.564Z,0
2017-02-12T01:28:17.101Z,0
2017-02-12T01:29:17.626Z,0
2017-02-12T01:30:18.158Z,0
2017-02-12T01:31:18.689Z,0
2017-02-12T01:32:19.219Z,0
2017-02-12T01:33:19.746Z,0
2017-02-12T01:34:20.279Z,0
2017-02-12T01:35:20.811Z,0
2017-02-12T01:36:21.340Z,0
2017-02-12T01:37:21.870Z,0
2017-02-12T01:38:22.403Z,0
2017-02-12T01:39:22.941Z,0
2017-02-12T01:40:23.464Z,0
2017-02-12T01:41:23.992Z,0
2017-02-12T01:42:24.674Z,0
2017-02-12T01:43:25.062Z,0
2017-02-12T01:44:25.599Z,0
2017-02-12T01:45:26.129Z,0
2017-02-12T01:46:26.811Z,0
2017-02-12T01:47:27.202Z,0
2017-02-12T01:48:27.876Z,0
2017-02-12T01:49:28.405Z,0
2017-02-12T01:50:28.789Z,0
2017-02-12T01:51:29.332Z,0
2017-02-12T01:52:29.848Z,0
2017-02-12T01:53:30.429Z,0
2017-02-12T01:54:30.906Z,0
2017-02-12T01:55:31.580Z,0
2017-02-12T01:56:31.964Z,0
2017-02-12T01:57:32.642Z,0
2017-02-12T01:58:33.025Z,0
2017-02-12T01:59:33.698Z,0
2017-02-12T02:00:34.226Z,0
2017-02-12T02:01:34.609Z,0
2017-02-12T02:02:35.324Z,0
2017-02-12T02:03:35.821Z,0
2017-02-12T02:04:36.204Z,0
2017-02-12T02:05:36.729Z,0
2017-02-12T02:06:37.262Z,0
2017-02-12T02:07:37.796Z,0
2017-02-12T02:08:38.326Z,0
2017-02-12T02:09:38.853Z,0
2017-02-12T02:10:39.392Z,0
2017-02-12T02:11:39.916Z,0
2017-02-12T02:12:40.449Z,0
2017-02-12T02:13:41.125Z,0
2017-02-12T02:14:41.506Z,0
2017-02-12T02:15:42.028Z,0
2017-02-12T02:16:42.582Z,0
2017-02-12T02:17:43.237Z,0
2017-02-12T02:18:43.622Z,0
2017-02-12T02:19:44.155Z,0
2017-02-12T02:20:44.687Z,0
2017-02-12T02:21:45.210Z,0
2017-02-12T02:22:45.757Z,0
2017-02-12T02:23:46.280Z,0
2017-02-12T02:24:46.817Z,0
2017-02-12T02:25:47.342Z,0
2017-02-12T02:26:47.881Z,0
2017-02-12T02:27:48.566Z,0
2017-02-12T02:28:48.952Z,0
2017-02-12T02:29:49.481Z,0
2017-02-12T02:30:50.014Z,0
2017-02-12T02:31:50.690Z,0
2017-02-12T02:32:51.069Z,0
2017-02-12T02:33:51.602Z,0
2017-02-12T02:34:52.128Z,0
2017-02-12T02:35:52.665Z,0
2017-02-12T02:36:53.197Z,0
2017-02-12T02:37:53.873Z,0
2017-02-12T02:38:54.256Z,0
2017-02-12T02:39:54.787Z,0
2017-02-12T02:40:55.456Z,0
2017-02-12T02:41:55.890Z,0
2017-02-12T02:42:56.368Z,0
2017-02-12T02:43:56.897Z,0
2017-02-12T02:44:57.430Z,0
2017-02-12T02:45:57.956Z,0
2017-02-12T02:46:58.492Z,0
2017-02-12T02:47:59.167Z,0
2017-02-12T02:48:59.695Z,0
2017-02-12T02:50:00.095Z,0
2017-02-12T02:51:00.608Z,0
2017-02-12T02:52:01.154Z,0
2017-02-12T02:53:01.671Z,0
2017-02-12T02:54:02.202Z,0
2017-02-12T02:55:02.727Z,0
2017-02-12T02:56:03.255Z,0
2017-02-12T02:57:03.788Z,0
2017-02-12T02:58:04.322Z,0
2017-02-12T02:59:04.848Z,0
2017-02-12T03:00:05.525Z,0
2017-02-12T03:01:05.913Z,0
2017-02-12T03:02:06.441Z,0
2017-02-12T03:03:06.974Z,0
2017-02-12T03:04:07.651Z,0
2017-02-12T03:05:08.036Z,0
2017-02-12T03:06:08.569Z,0
2017-02-12T03:07:09.117Z,0
2017-02-12T03:08:09.658Z,0
2017-02-12T03:09:10.167Z,0
2017-02-12T03:10:10.695Z,0
2017-02-12T03:11:11.382Z,0
2017-02-12T03:12:11.799Z,0
2017-02-12T03:13:12.300Z,0
2017-02-12T03:14:12.826Z,0
2017-02-12T03:15:13.506Z,0
2017-02-12T03:16:13.889Z,0
2017-02-12T03:17:14.566Z,0
2017-02-12T03:18:14.951Z,0
2017-02-12T03:19:15.479Z,0
2017-02-12T03:20:16.023Z,0
2017-02-12T03:21:16.581Z,0
2017-02-12T03:22:17.079Z,0
2017-02-12T03:23:17.604Z,0
2017-02-12T03:24:18.277Z,0
2017-02-12T03:25:18.661Z,0
2017-02-12T03:26:19.184Z,0
2017-02-12T03:27:19.864Z,0
2017-02-12T03:28:20.257Z,0
2017-02-12T03:29:20.778Z,0
2017-02-12T03:30:21.308Z,0
2017-02-12T03:31:21.838Z,0
2017-02-12T03:32:22.367Z,0
2017-02-12T03:33:22.904Z,0
2017-02-12T03:34:23.435Z,0
2017-02-12T03:35:23.963Z,0
2017-02-12T03:36:24.640Z,0
2017-02-12T03:37:25.019Z,0
2017-02-12T03:38:25.699Z,0
2017-02-12T03:39:26.080Z,0
2017-02-12T03:40:26.610Z,0
2017-02-12T03:41:27.144Z,0
2017-02-12T03:42:27.668Z,0
2017-02-12T03:43:28.196Z,0
2017-02-12T03:44:28.873Z,0
2017-02-12T03:45:29.257Z,0
2017-02-12T03:46:29.813Z,0
2017-02-12T03:47:30.320Z,0
2017-02-12T03:48:30.849Z,0
2017-02-12T03:49:31.388Z,0
2017-02-12T03:50:32.067Z,0
2017-02-12T03:51:32.454Z,0
2017-02-12T03:52:33.017Z,0
2017-02-12T03:53:33.516Z,0
2017-02-12T03:54:34.049Z,0
2017-02-12T03:55:34.583Z,0
2017-02-12T03:56:35.105Z,0
2017-02-12T03:57:35.785Z,0
2017-02-12T03:58:36.163Z,0
2017-02-12T03:59:36.697Z,0
2017-02-12T04:00:37.261Z,0
2017-02-12T04:01:37.901Z,0
2017-02-12T04:02:38.286Z,0
2017-02-12T04:03:38.819Z,0
2017-02-12T04:04:39.346Z,0
2017-02-12T04:05:39.883Z,0
2017-02-12T04:06:40.436Z,0
2017-02-12T04:07:40.937Z,0
2017-02-12T04:08:41.465Z,0
2017-02-12T04:09:42.000Z,0
2017-02-12T04:10:42.528Z,0
2017-02-12T04:11:43.056Z,0
2017-02-12T04:12:43.590Z,0
2017-02-12T04:13:44.117Z,0
2017-02-12T04:14:44.648Z,0
2017-02-12T04:15:45.181Z,0
2017-02-12T04:16:45.705Z,0
2017-02-12T04:17:46.242Z,0
2017-02-12T04:18:46.763Z,0
2017-02-12T04:19:47.304Z,0
2017-02-12T04:20:47.826Z,0
2017-02-12T04:21:48.356Z,0
2017-02-12T04:22:49.037Z,0
2017-02-12T04:23:49.416Z,0
2017-02-12T04:24:49.949Z,0
2017-02-12T04:25:50.476Z,0
2017-02-12T04:26:51.045Z,0
2017-02-12T04:27:51.542Z,0
2017-02-12T04:28:52.221Z,0
2017-02-12T04:29:52.602Z,0
2017-02-12T04:30:53.132Z,0
2017-02-12T04:31:53.669Z,0
2017-02-12T04:32:54.201Z,0
2017-02-12T04:33:54.738Z,0
2017-02-12T04:34:55.419Z,0
2017-02-12T04:35:55.949Z,0
2017-02-12T04:36:56.482Z,0
2017-02-12T04:37:56.862Z,0
2017-02-12T04:38:57.425Z,0
2017-02-12T04:39:57.927Z,0
2017-02-12T04:40:58.630Z,0
2017-02-12T04:41:58.985Z,0
2017-02-12T04:42:59.665Z,0
2017-02-12T04:44:00.045Z,0
2017-02-12T04:45:00.579Z,0
2017-02-12T04:46:01.252Z,0
2017-02-12T04:47:01.633Z,0
2017-02-12T04:48:02.310Z,0
2017-02-12T04:49:02.690Z,0
2017-02-12T04:50:03.229Z,0
2017-02-12T04:51:03.761Z,0
2017-02-12T04:52:04.286Z,0
2017-02-12T04:53:04.813Z,0
2017-02-12T04:54:05.345Z,0
2017-02-12T04:55:05.872Z,0
2017-02-12T04:56:06.404Z,0
2017-02-12T04:57:07.082Z,0
2017-02-12T04:58:07.464Z,0
2017-02-12T04:59:07.995Z,0
2017-02-12T05:00:08.527Z,0
2017-02-12T05:01:09.057Z,0
2017-02-12T05:02:09.587Z,0
2017-02-12T05:03:10.117Z,0
2017-02-12T05:04:10.651Z,0
2017-02-12T05:05:11.212Z,0
2017-02-12T05:06:11.713Z,0
2017-02-12T05:07:12.237Z,0
2017-02-12T05:08:12.768Z,0
2017-02-12T05:09:13.296Z,0
2017-02-12T05:10:13.828Z,0
2017-02-12T05:11:14.357Z,0
2017-02-12T05:12:14.888Z,0
2017-02-12T05:13:15.415Z,0
2017-02-12T05:14:15.953Z,0
2017-02-12T05:15:16.491Z,0
2017-02-12T05:16:17.021Z,0
2017-02-12T05:17:17.552Z,0
2017-02-12T05:18:18.085Z,0
2017-02-12T05:19:18.613Z,0
2017-02-12T05:20:19.147Z,0
2017-02-12T05:21:19.843Z,0
2017-02-12T05:22:20.202Z,0
2017-02-12T05:23:20.743Z,0
2017-02-12T05:24:21.262Z,0
2017-02-12T05:25:21.795Z,0
2017-02-12T05:26:22.327Z,0
2017-02-12T05:27:22.885Z,0
2017-02-12T05:28:23.382Z,0
2017-02-12T05:29:24.062Z,0
2017-02-12T05:30:24.445Z,0
2017-02-12T05:31:24.969Z,0
2017-02-12T05:32:25.506Z,0
2017-02-12T05:33:26.189Z,0
2017-02-12T05:34:26.572Z,0
2017-02-12T05:35:27.101Z,0
2017-02-12T05:37:28.173Z,0
2017-02-12T05:38:28.692Z,0
2017-02-12T05:39:29.219Z,0
2017-02-12T05:40:29.749Z,0
2017-02-12T05:41:30.428Z,0
2017-02-12T05:42:30.813Z,0
2017-02-12T05:43:31.338Z,0
2017-02-12T05:44:32.010Z,0
2017-02-12T05:45:32.581Z,0
2017-02-12T05:46:33.094Z,0
2017-02-12T05:47:33.493Z,0
2017-02-12T05:48:34.031Z,0
2017-02-12T05:49:34.565Z,0
2017-02-12T05:50:35.102Z,0
2017-02-12T05:51:35.672Z,0
2017-02-12T05:52:36.183Z,0
2017-02-12T05:53:36.739Z,0
2017-02-12T05:54:37.246Z,0
2017-02-12T05:55:37.789Z,0
2017-02-12T05:56:38.316Z,0
2017-02-12T05:57:38.851Z,0
2017-02-12T05:58:39.378Z,0
2017-02-12T05:59:39.925Z,0
2017-02-12T06:00:40.598Z,0
2017-02-12T06:01:40.988Z,0
2017-02-12T06:02:41.495Z,0
2017-02-12T06:03:42.060Z,0
2017-02-12T06:04:42.557Z,0
2017-02-12T06:05:43.092Z,0
2017-02-12T06:06:43.622Z,0
2017-02-12T06:07:44.299Z,0
2017-02-12T06:08:44.679Z,4
2017-02-12T06:09:45.216Z,4
2017-02-12T06:10:45.741Z,0
2017-02-12T06:11:46.273Z,0
2017-02-12T06:12:46.799Z,4
2017-02-12T06:13:47.479Z,4
2017-02-12T06:14:47.863Z,4
2017-02-12T06:15:48.417Z,4
2017-02-12T06:16:48.925Z,4
2017-02-12T06:17:49.451Z,8
2017-02-12T06:18:49.985Z,4
2017-02-12T06:19:50.510Z,8
2017-02-12T06:20:51.044Z,12
2017-02-12T06:21:51.574Z,12
2017-02-12T06:22:52.112Z,16
2017-02-12T06:23:52.635Z,16
2017-02-12T06:24:53.170Z,20
2017-02-12T06:25:53.707Z,28
2017-02-12T06:26:54.226Z,28
2017-02-12T06:27:54.907Z,36
2017-02-12T06:28:55.288Z,36
2017-02-12T06:29:55.821Z,44
2017-02-12T06:30:56.499Z,60
2017-02-12T06:31:56.878Z,68
2017-02-12T06:32:57.408Z,80
2017-02-12T06:33:57.943Z,92
2017-02-12T06:34:58.475Z,104
2017-02-12T06:35:59.000Z,120
2017-02-12T06:36:59.533Z,136
2017-02-12T06:38:00.066Z,148
2017-02-12T06:39:00.770Z,164
2017-02-12T06:40:01.128Z,184
2017-02-12T06:41:01.809Z,204
2017-02-12T06:42:02.191Z,232
2017-02-12T06:43:02.724Z,256
2017-02-12T06:44:03.405Z,292
2017-02-12T06:45:03.784Z,300
2017-02-12T06:46:04.309Z,308
2017-02-12T06:47:04.847Z,304
2017-02-12T06:48:05.375Z,324
2017-02-12T06:49:05.901Z,348
2017-02-12T06:50:06.429Z,384
2017-02-12T06:51:06.966Z,404
2017-02-12T06:52:07.525Z,428
2017-02-12T06:53:08.022Z,416
2017-02-12T06:54:08.699Z,428
2017-02-12T06:55:09.081Z,468
2017-02-12T06:56:09.639Z,504
2017-02-12T06:57:10.288Z,556
2017-02-12T06:58:10.676Z,616
2017-02-12T06:59:11.205Z,636
2017-02-12T07:00:11.887Z,664
2017-02-12T07:01:12.267Z,676
2017-02-12T07:02:12.793Z,676
2017-02-12T07:03:13.332Z,656
2017-02-12T07:04:13.865Z,668
2017-02-12T07:05:14.389Z,736
2017-02-12T07:06:14.926Z,812
2017-02-12T07:07:15.452Z,872
2017-02-12T07:08:16.133Z,948
2017-02-12T07:09:16.518Z,924
2017-02-12T07:10:17.189Z,856
2017-02-12T07:11:17.574Z,912
2017-02-12T07:12:18.101Z,940
2017-02-12T07:13:18.632Z,944
2017-02-12T07:14:19.312Z,980
2017-02-12T07:15:19.694Z,1056
2017-02-12T07:16:20.227Z,1120
2017-02-12T07:17:20.908Z,1172
2017-02-12T07:18:21.443Z,1244
2017-02-12T07:19:21.830Z,1288
2017-02-12T07:21:23.039Z,1376
2017-02-12T07:22:23.570Z,1440
2017-02-12T07:23:23.955Z,1624
2017-02-12T07:24:24.486Z,1784
2017-02-12T07:25:25.160Z,1872
2017-02-12T07:26:25.581Z,2012
2017-02-12T07:27:26.072Z,2276
2017-02-12T07:28:26.628Z,2476
2017-02-12T07:29:27.130Z,2608
2017-02-12T07:30:27.810Z,2628
2017-02-12T07:31:28.195Z,2652
2017-02-12T07:32:28.718Z,3032
2017-02-12T07:33:29.255Z,2768
2017-02-12T07:34:29.933Z,2656
2017-02-12T07:35:30.314Z,2732
2017-02-12T07:36:30.993Z,2704
2017-02-12T07:37:31.378Z,2640
2017-02-12T07:38:32.053Z,2584
2017-02-12T07:39:32.433Z,2680
2017-02-12T07:40:32.966Z,2704
2017-02-12T07:41:33.510Z,2868
2017-02-12T07:42:34.167Z,2892
2017-02-12T07:43:34.550Z,2892
2017-02-12T07:44:35.228Z,3032
2017-02-12T07:45:35.610Z,3040
2017-02-12T07:46:36.141Z,3108
2017-02-12T07:47:36.669Z,2984
2017-02-12T07:48:37.194Z,2844
2017-02-12T07:49:37.723Z,2684
2017-02-12T07:50:38.283Z,2568
2017-02-12T07:51:38.789Z,2516
2017-02-12T07:52:39.315Z,2576
2017-02-12T07:53:39.880Z,2636
2017-02-12T07:54:40.530Z,2824
2017-02-12T07:55:40.909Z,3036
2017-02-12T07:56:41.589Z,3160
2017-02-12T07:57:41.969Z,3172
2017-02-12T07:58:42.652Z,3296
2017-02-12T07:59:43.037Z,3192
2017-02-12T08:00:43.713Z,3060
2017-02-12T08:01:44.101Z,3120
2017-02-12T08:02:44.632Z,3204
2017-02-12T08:03:45.164Z,3232
2017-02-12T08:04:45.698Z,3328
2017-02-12T08:05:46.228Z,3304
2017-02-12T08:06:46.756Z,3200
2017-02-12T08:07:47.288Z,3116
2017-02-12T08:08:47.827Z,3060
2017-02-12T08:09:48.492Z,3060
2017-02-12T08:10:48.880Z,3284
2017-02-12T08:11:49.409Z,3780
2017-02-12T08:12:50.086Z,3936
2017-02-12T08:13:50.467Z,3896
2017-02-12T08:14:51.004Z,3940
2017-02-12T08:15:51.524Z,4200
2017-02-12T08:16:52.051Z,4356
2017-02-12T08:17:52.579Z,4408
2017-02-12T08:18:53.109Z,4444
2017-02-12T08:19:53.644Z,4388
2017-02-12T08:20:54.181Z,4076
2017-02-12T08:21:54.704Z,3908
2017-02-12T08:22:55.233Z,4020
2017-02-12T08:23:55.769Z,4172
2017-02-12T08:24:56.298Z,4624
2017-02-12T08:25:56.826Z,4612
2017-02-12T08:26:57.352Z,4732
2017-02-12T08:27:57.886Z,4980
2017-02-12T08:28:58.409Z,5396
2017-02-12T08:29:58.943Z,5400
2017-02-12T08:30:59.466Z,5784
2017-02-12T08:32:00.001Z,6236
2017-02-12T08:33:00.528Z,6500
2017-02-12T08:34:01.207Z,6336
2017-02-12T08:35:01.592Z,6564
2017-02-12T08:36:02.121Z,6764
2017-02-12T08:37:02.678Z,6684
2017-02-12T08:38:03.178Z,6520
2017-02-12T08:39:03.709Z,6204
2017-02-12T08:40:04.247Z,6268
2017-02-12T08:41:04.924Z,6680
2017-02-12T08:42:05.303Z,7040
2017-02-12T08:43:05.861Z,6960
2017-02-12T08:44:06.521Z,7116
2017-02-12T08:45:06.919Z,7100
2017-02-12T08:46:07.446Z,6252
2017-02-12T08:47:07.975Z,5880
2017-02-12T08:48:08.532Z,5212
2017-02-12T08:49:09.192Z,4740
2017-02-12T08:50:09.579Z,4812
2017-02-12T08:51:10.098Z,5000
2017-02-12T08:52:10.630Z,5324
2017-02-12T08:53:11.159Z,5808
2017-02-12T08:54:11.834Z,6284
2017-02-12T08:55:12.216Z,7036
2017-02-12T08:56:12.748Z,7212
2017-02-12T08:57:13.312Z,7804
2017-02-12T08:58:13.807Z,8316
2017-02-12T08:59:14.343Z,8908
2017-02-12T09:00:14.865Z,9504
2017-02-12T09:01:15.543Z,8968
2017-02-12T09:02:15.924Z,9320
2017-02-12T09:03:16.459Z,8536
2017-02-12T09:04:16.987Z,8076
2017-02-12T09:05:17.520Z,8208
2017-02-12T09:06:18.191Z,8552
2017-02-12T09:07:18.579Z,8932
2017-02-12T09:08:19.111Z,9440
2017-02-12T09:09:19.791Z,9580
2017-02-12T09:10:20.173Z,9672
2017-02-12T09:11:20.698Z,10148
2017-02-12T09:12:21.231Z,9828
2017-02-12T09:13:21.758Z,9916
2017-02-12T09:14:22.289Z,9888
2017-02-12T09:15:22.817Z,9928
2017-02-12T09:16:23.344Z,10148
2017-02-12T09:17:23.873Z,9292
2017-02-12T09:18:24.410Z,8864
2017-02-12T09:19:25.087Z,8572
2017-02-12T09:20:25.617Z,8460
2017-02-12T09:21:26.148Z,8336
2017-02-12T09:22:26.530Z,8516
2017-02-12T09:23:27.058Z,8900
2017-02-12T09:24:27.595Z,8996
2017-02-12T09:25:28.128Z,9024
2017-02-12T09:26:28.663Z,9464
2017-02-12T09:27:29.194Z,9560
2017-02-12T09:28:29.878Z,9564
2017-02-12T09:29:30.412Z,9540
2017-02-12T09:30:30.794Z,9544
2017-02-12T09:31:31.323Z,9340
2017-02-12T09:32:31.854Z,9824
2017-02-12T09:33:32.382Z,8924
2017-02-12T09:34:32.913Z,8228
2017-02-12T09:35:33.438Z,8044
2017-02-12T09:36:33.979Z,8012
2017-02-12T09:37:34.501Z,8060
2017-02-12T09:38:35.036Z,8016
2017-02-12T09:39:35.561Z,8088
2017-02-12T09:40:36.236Z,8440
2017-02-12T09:41:36.617Z,8924
2017-02-12T09:42:37.145Z,8916
2017-02-12T09:43:37.676Z,9424
2017-02-12T09:44:38.206Z,9500
2017-02-12T09:45:38.734Z,10128
2017-02-12T09:46:39.267Z,10028
2017-02-12T09:47:39.952Z,9164
2017-02-12T09:48:40.331Z,8644
2017-02-12T09:49:40.856Z,8392
2017-02-12T09:50:41.390Z,8716
2017-02-12T09:51:42.072Z,10140
2017-02-12T09:52:42.457Z,10056
2017-02-12T09:53:42.979Z,9972
2017-02-12T09:54:43.514Z,10288
2017-02-12T09:55:44.189Z,10636
2017-02-12T09:56:44.575Z,9944
2017-02-12T09:57:45.107Z,10300
2017-02-12T09:58:45.635Z,10624
2017-02-12T09:59:46.457Z,10568
2017-02-12T10:00:46.698Z,10592
2017-02-12T10:01:47.374Z,10856
2017-02-12T10:02:47.759Z,10056
2017-02-12T10:03:48.283Z,9628
2017-02-12T10:04:48.816Z,9468
2017-02-12T10:05:49.342Z,9964
2017-02-12T10:06:49.877Z,10196
2017-02-12T10:07:50.444Z,9848
2017-02-12T10:08:50.943Z,10588
2017-02-12T10:09:51.477Z,11924
2017-02-12T10:10:52.163Z,12552
2017-02-12T10:11:52.553Z,12604
2017-02-12T10:12:53.083Z,13024
2017-02-12T10:13:53.762Z,13308
2017-02-12T10:14:54.148Z,13220
2017-02-12T10:15:54.671Z,13252
2017-02-12T10:16:55.205Z,12828
2017-02-12T10:17:55.739Z,13260
2017-02-12T10:18:56.268Z,13504
2017-02-12T10:19:56.796Z,13600
2017-02-12T10:20:57.475Z,13116
2017-02-12T10:21:58.005Z,12060
2017-02-12T10:22:58.534Z,11860
2017-02-12T10:23:59.064Z,10720
2017-02-12T10:24:59.451Z,10212
2017-02-12T10:25:59.979Z,9740
2017-02-12T10:27:00.655Z,9704
2017-02-12T10:28:01.040Z,11340
2017-02-12T10:29:01.571Z,12704
2017-02-12T10:30:02.097Z,13152
2017-02-12T10:31:02.644Z,12228
2017-02-12T10:32:03.160Z,12168
2017-02-12T10:33:03.695Z,12432
2017-02-12T10:34:04.236Z,12476
2017-02-12T10:35:04.902Z,12152
2017-02-12T10:36:05.283Z,11544
2017-02-12T10:37:05.820Z,11420
2017-02-12T10:38:06.344Z,12428
2017-02-12T10:39:07.178Z,13736
2017-02-12T10:40:07.556Z,13724
2017-02-12T10:41:07.949Z,12860
2017-02-12T10:42:08.466Z,13336
2017-02-12T10:43:08.996Z,16124
2017-02-12T10:44:09.560Z,16368
2017-02-12T10:45:10.060Z,13704
2017-02-12T10:46:10.588Z,11716
2017-02-12T10:47:11.118Z,10944
2017-02-12T10:48:11.711Z,10448
2017-02-12T10:49:12.181Z,10248
2017-02-12T10:50:12.866Z,10052
2017-02-12T10:51:13.265Z,10268
2017-02-12T10:52:13.791Z,9740
2017-02-12T10:53:14.472Z,9416
2017-02-12T10:54:14.855Z,9372
2017-02-12T10:55:15.390Z,9388
2017-02-12T10:56:16.069Z,9256
2017-02-12T10:57:16.452Z,9244
2017-02-12T10:58:17.134Z,9500
2017-02-12T10:59:17.526Z,9776
2017-02-12T11:00:18.080Z,10124
2017-02-12T11:01:18.580Z,10324
2017-02-12T11:02:19.112Z,10624
2017-02-12T11:03:19.788Z,10680
2017-02-12T11:04:20.322Z,10404
2017-02-12T11:05:20.705Z,10632
2017-02-12T11:06:21.241Z,11076
2017-02-12T11:07:21.914Z,11788
2017-02-12T11:08:22.451Z,13384
2017-02-12T11:09:22.829Z,14676
2017-02-12T11:10:23.359Z,13768
2017-02-12T11:11:23.891Z,12796
2017-02-12T11:12:24.421Z,12380
2017-02-12T11:13:24.957Z,11808
2017-02-12T11:14:25.519Z,11708
2017-02-12T11:15:26.024Z,12532
2017-02-12T11:16:26.552Z,12896
2017-02-12T11:17:27.223Z,13712
2017-02-12T11:18:27.774Z,14436
2017-02-12T11:19:28.143Z,14624
2017-02-12T11:20:28.679Z,14988
2017-02-12T11:21:29.200Z,15832
2017-02-12T11:22:29.878Z,16292
2017-02-12T11:23:30.260Z,16548
2017-02-12T11:24:30.797Z,15316
2017-02-12T11:25:31.328Z,14276
2017-02-12T11:26:31.862Z,15580
2017-02-12T11:27:32.388Z,18668
2017-02-12T11:28:33.067Z,19328
2017-02-12T11:29:33.452Z,18780
2017-02-12T11:30:34.011Z,18352
2017-02-12T11:31:34.657Z,18560
2017-02-12T11:32:35.043Z,18704
2017-02-12T11:33:35.581Z,19616
2017-02-12T11:34:36.111Z,20704
2017-02-12T11:35:36.791Z,21664
2017-02-12T11:36:37.174Z,20992
2017-02-12T11:37:37.728Z,20352
2017-02-12T11:38:38.384Z,20032
2017-02-12T11:39:38.764Z,18944
2017-02-12T11:40:39.891Z,18644
2017-02-12T11:41:39.829Z,19648
2017-02-12T11:42:40.364Z,19616
2017-02-12T11:43:40.888Z,18880
2017-02-12T11:44:41.420Z,18004
2017-02-12T11:45:41.950Z,16984
2017-02-12T11:46:42.481Z,17240
2017-02-12T11:47:43.012Z,17032
2017-02-12T11:48:43.691Z,16172
2017-02-12T11:49:44.217Z,15748
2017-02-12T11:50:44.604Z,15672
2017-02-12T11:51:45.139Z,15516
2017-02-12T11:52:45.664Z,15936
2017-02-12T11:53:46.343Z,16560
2017-02-12T11:54:46.729Z,16412
2017-02-12T11:55:47.256Z,16076
2017-02-12T11:56:47.933Z,15808
2017-02-12T11:57:48.477Z,15552
2017-02-12T11:58:49.000Z,16008
2017-02-12T11:59:49.381Z,16772
2017-02-12T12:00:49.946Z,16632
2017-02-12T12:01:50.439Z,16352
2017-02-12T12:02:51.119Z,16396
2017-02-12T12:03:51.648Z,16244
2017-02-12T12:04:52.028Z,16356
2017-02-12T12:05:52.558Z,16668
2017-02-12T12:06:53.091Z,16504
2017-02-12T12:07:53.619Z,16148
2017-02-12T12:08:54.149Z,16088
2017-02-12T12:09:54.687Z,16372
2017-02-12T12:10:55.210Z,16448
2017-02-12T12:11:55.739Z,16136
2017-02-12T12:12:56.275Z,16380
2017-02-12T12:13:56.805Z,16692
2017-02-12T12:14:57.340Z,16692
2017-02-12T12:15:58.020Z,17160
2017-02-12T12:16:58.556Z,17452
2017-02-12T12:17:59.087Z,16792
2017-02-12T12:18:59.472Z,16708
2017-02-12T12:20:00.005Z,17244
2017-02-12T12:21:00.545Z,17704
2017-02-12T12:22:01.072Z,18124
2017-02-12T12:23:01.599Z,18360
2017-02-12T12:24:02.136Z,18472
2017-02-12T12:25:02.692Z,18448
2017-02-12T12:27:03.724Z,18332
2017-02-12T12:28:04.252Z,18424
2017-02-12T12:29:04.784Z,17588
2017-02-12T12:30:05.312Z,17236
2017-02-12T12:31:05.843Z,17452
2017-02-12T12:32:06.379Z,17568
2017-02-12T12:33:06.904Z,16968
2017-02-12T12:34:07.442Z,16452
2017-02-12T12:35:07.967Z,16532
2017-02-12T12:36:08.644Z,16576
2017-02-12T12:37:09.246Z,16380
2017-02-12T12:38:09.588Z,16432
2017-02-12T12:39:10.090Z,16596
2017-02-12T12:40:10.766Z,16544
2017-02-12T12:41:11.142Z,16104
2017-02-12T12:42:11.679Z,16444
2017-02-12T12:43:12.207Z,16152
2017-02-12T12:44:12.738Z,15564
2017-02-12T12:45:13.418Z,15544
2017-02-12T12:46:13.948Z,14808
2017-02-12T12:47:14.334Z,14344
2017-02-12T12:48:14.862Z,14484
2017-02-12T12:49:15.390Z,15104
2017-02-12T12:50:15.919Z,15592
2017-02-12T12:51:16.459Z,15176
2017-02-12T12:52:16.977Z,15028
2017-02-12T12:53:17.515Z,14884
2017-02-12T12:54:18.035Z,14724
2017-02-12T12:55:18.566Z,14764
2017-02-12T12:56:19.104Z,14900
2017-02-12T12:57:19.638Z,14788
2017-02-12T12:58:20.174Z,14556
2017-02-12T12:59:20.708Z,14512
2017-02-12T13:00:21.241Z,14328
2017-02-12T13:01:21.778Z,14172
2017-02-12T13:02:22.303Z,14080
2017-02-12T13:03:22.982Z,14084
2017-02-12T13:04:23.364Z,13952
2017-02-12T13:05:23.894Z,13740
2017-02-12T13:06:24.422Z,13336
2017-02-12T13:07:24.959Z,13316
2017-02-12T13:08:25.483Z,13192
2017-02-12T13:09:26.039Z,13004
2017-02-12T13:10:26.545Z,12624
2017-02-12T13:11:27.222Z,12608
2017-02-12T13:12:27.604Z,12580
2017-02-12T13:13:28.328Z,12892
2017-02-12T13:14:28.670Z,13208
2017-02-12T13:15:29.350Z,13428
2017-02-12T13:16:29.877Z,13504
2017-02-12T13:17:30.408Z,13120
2017-02-12T13:18:30.786Z,13056
2017-02-12T13:19:31.340Z,13228
2017-02-12T13:20:31.852Z,13772
2017-02-12T13:21:32.381Z,13812
2017-02-12T13:22:32.915Z,13664
2017-02-12T13:23:33.450Z,13504
2017-02-12T13:24:33.975Z,13644
2017-02-12T13:25:34.504Z,13696
2017-02-12T13:26:35.046Z,13704
2017-02-12T13:27:35.563Z,13560
2017-02-12T13:28:36.095Z,13636
2017-02-12T13:29:36.628Z,13564
2017-02-12T13:30:37.157Z,13512
2017-02-12T13:31:37.695Z,13604
2017-02-12T13:32:38.216Z,13372
2017-02-12T13:33:38.749Z,12964
2017-02-12T13:34:39.427Z,13152
2017-02-12T13:35:39.809Z,13328
2017-02-12T13:36:40.342Z,13356
2017-02-12T13:37:40.872Z,13344
2017-02-12T13:38:41.406Z,13020
2017-02-12T13:39:41.938Z,12436
2017-02-12T13:40:42.472Z,12328
2017-02-12T13:41:43.005Z,12228
2017-02-12T13:42:43.680Z,11840
2017-02-12T13:43:44.061Z,11468
2017-02-12T13:44:44.592Z,11416
2017-02-12T13:45:45.131Z,11312
2017-02-12T13:46:45.657Z,11240
2017-02-12T13:47:46.183Z,11392
2017-02-12T13:48:46.717Z,11708
2017-02-12T13:49:47.397Z,12112
2017-02-12T13:50:47.782Z,11764
2017-02-12T13:51:48.310Z,11344
2017-02-12T13:52:48.842Z,11204
2017-02-12T13:53:49.373Z,10836
2017-02-12T13:54:49.900Z,10380
2017-02-12T13:55:50.585Z,10224
2017-02-12T13:56:50.965Z,10336
2017-02-12T13:57:51.640Z,10164
2017-02-12T13:58:52.024Z,9744
2017-02-12T13:59:52.552Z,9756
2017-02-12T14:00:53.081Z,9564